createdAt,value
2019-03-23T00:00:27.530Z,52.93
2019-03-23T00:02:56.869Z,52.53
2019-03-23T00:05:26.218Z,54.70
2019-03-23T00:07:55.550Z,54.63
2019-03-23T00:10:24.893Z,54.20
2019-03-23T00:12:54.221Z,52.70
2019-03-23T00:15:23.632Z,51.70
2019-03-23T00:17:52.987Z,53.37
2019-03-23T00:20:22.322Z,54.30
2019-03-23T00:22:51.654Z,52.40
2019-03-23T00:25:21.002Z,54.60
2019-03-23T00:27:50.341Z,54.10
2019-03-23T00:30:19.674Z,56.00
2019-03-23T00:32:49.014Z,56.40
2019-03-23T00:35:18.364Z,56.17
2019-03-23T00:37:47.695Z,56.93
2019-03-23T00:40:17.025Z,54.53
2019-03-23T00:42:46.374Z,58.17
2019-03-23T00:45:15.718Z,53.93
2019-03-23T00:47:45.058Z,57.77
2019-03-23T00:50:14.470Z,55.40
2019-03-23T00:52:43.805Z,55.43
2019-03-23T00:55:13.214Z,54.10
2019-03-23T00:57:42.557Z,52.33
2019-03-23T01:00:13.033Z,49.53
2019-03-23T01:02:42.415Z,48.43
2019-03-23T01:05:12.122Z,52.33
2019-03-23T01:07:41.462Z,50.40
2019-03-23T01:10:12.012Z,52.37
2019-03-23T01:12:41.419Z,53.07
2019-03-23T01:15:12.448Z,53.60
2019-03-23T01:17:41.882Z,51.00
2019-03-23T01:20:12.253Z,52.97
2019-03-23T01:22:41.588Z,51.20
2019-03-23T01:25:11.555Z,51.57
2019-03-23T01:27:40.899Z,52.07
2019-03-23T01:30:14.977Z,50.63
2019-03-23T01:32:44.309Z,50.70
2019-03-23T01:35:13.797Z,50.30
2019-03-23T01:37:43.133Z,52.20
2019-03-23T01:40:12.771Z,53.53
2019-03-23T01:42:42.122Z,52.67
2019-03-23T01:45:14.821Z,51.70
2019-03-23T01:47:44.162Z,48.90
2019-03-23T01:50:14.253Z,44.17
2019-03-23T01:52:43.578Z,47.17
2019-03-23T01:55:12.994Z,49.27
2019-03-23T01:57:42.318Z,42.53
2019-03-23T02:00:13.190Z,41.80
2019-03-23T02:02:42.593Z,47.77
2019-03-23T02:05:12.077Z,45.97
2019-03-23T02:07:41.414Z,47.43
2019-03-23T02:10:11.901Z,51.67
2019-03-23T02:12:41.229Z,50.83
2019-03-23T02:15:12.017Z,51.70
2019-03-23T02:17:41.354Z,52.03
2019-03-23T02:20:12.937Z,46.97
2019-03-23T02:22:42.281Z,46.30
2019-03-23T02:25:11.841Z,45.03
2019-03-23T02:27:41.178Z,42.37
2019-03-23T02:30:11.651Z,45.33
2019-03-23T02:32:40.996Z,43.87
2019-03-23T02:35:10.467Z,46.50
2019-03-23T02:37:39.830Z,50.27
2019-03-23T02:40:10.376Z,47.17
2019-03-23T02:42:40.170Z,42.20
2019-03-23T02:45:13.421Z,38.60
2019-03-23T02:47:42.769Z,41.77
2019-03-23T02:50:12.239Z,44.60
2019-03-23T02:52:41.574Z,40.23
2019-03-23T02:55:11.683Z,40.63
2019-03-23T02:57:40.996Z,37.50
2019-03-23T03:00:13.416Z,39.87
2019-03-23T03:02:42.738Z,40.63
2019-03-23T03:05:12.141Z,42.77
2019-03-23T03:07:43.235Z,44.70
2019-03-23T03:10:15.569Z,43.40
2019-03-23T03:12:44.898Z,40.37
2019-03-23T03:15:14.375Z,48.80
2019-03-23T03:17:43.721Z,60.50
2019-03-23T03:20:13.194Z,71.03
2019-03-23T03:22:42.547Z,75.70
2019-03-23T03:25:11.981Z,82.17
2019-03-23T03:27:41.362Z,83.10
2019-03-23T03:30:11.451Z,88.60
2019-03-23T03:32:40.797Z,84.87
2019-03-23T03:35:10.272Z,86.00
2019-03-23T03:37:39.614Z,87.67
2019-03-23T03:40:09.214Z,89.83
2019-03-23T03:42:38.699Z,81.80
2019-03-23T03:45:08.975Z,83.70
2019-03-23T03:47:41.318Z,81.47
2019-03-23T03:50:10.171Z,76.07
2019-03-23T03:52:39.509Z,77.87
2019-03-23T03:55:08.921Z,71.53
2019-03-23T03:57:38.250Z,73.90
2019-03-23T04:00:08.627Z,71.33
2019-03-23T04:02:38.366Z,68.27
2019-03-23T04:05:08.082Z,70.73
2019-03-23T04:07:37.407Z,69.90
2019-03-23T04:10:08.287Z,66.93
2019-03-23T04:12:37.627Z,66.50
2019-03-23T04:15:10.663Z,62.23
2019-03-23T04:17:40.026Z,63.97
2019-03-23T04:20:11.050Z,61.43
2019-03-23T04:22:40.403Z,62.10
2019-03-23T04:25:10.876Z,59.67
2019-03-23T04:27:40.205Z,61.90
2019-03-23T04:30:11.542Z,57.33
2019-03-23T04:32:41.111Z,58.37
2019-03-23T04:35:10.571Z,55.97
2019-03-23T04:37:39.898Z,56.23
2019-03-23T04:40:10.986Z,52.20
2019-03-23T04:42:40.384Z,53.27
2019-03-23T04:45:10.866Z,53.90
2019-03-23T04:47:40.289Z,53.87
2019-03-23T04:50:11.535Z,52.67
2019-03-23T04:52:40.864Z,57.03
2019-03-23T04:55:12.218Z,49.23
2019-03-23T04:57:41.809Z,49.67
2019-03-23T05:00:18.616Z,47.47
2019-03-23T05:02:47.956Z,48.47
2019-03-23T05:05:17.305Z,47.57
2019-03-23T05:07:46.626Z,47.33
2019-03-23T05:10:15.965Z,47.80
2019-03-23T05:12:45.295Z,50.00
2019-03-23T05:15:14.706Z,47.77
2019-03-23T05:17:44.045Z,47.83
2019-03-23T05:20:19.006Z,45.13
2019-03-23T05:22:48.333Z,46.87
2019-03-23T05:25:23.468Z,46.13
2019-03-23T05:27:52.793Z,46.73
2019-03-23T05:30:22.129Z,46.63
2019-03-23T05:32:51.536Z,45.73
2019-03-23T05:35:20.865Z,43.17
2019-03-23T05:37:50.203Z,45.70
2019-03-23T05:40:19.537Z,45.93
2019-03-23T05:42:48.886Z,44.30
2019-03-23T05:45:18.213Z,42.33
2019-03-23T05:47:47.552Z,42.70
2019-03-23T05:50:16.886Z,44.83
2019-03-23T05:52:46.234Z,43.10
2019-03-23T05:55:15.566Z,43.57
2019-03-23T05:57:44.909Z,44.77
2019-03-23T06:00:16.030Z,43.80
2019-03-23T06:02:45.370Z,42.07
2019-03-23T06:05:14.708Z,44.93
2019-03-23T06:07:44.049Z,43.23
2019-03-23T06:10:13.456Z,46.60
2019-03-23T06:12:42.793Z,45.80
2019-03-23T06:15:12.364Z,45.03
2019-03-23T06:17:41.701Z,44.40
2019-03-23T06:20:11.211Z,44.73
2019-03-23T06:22:40.559Z,44.50
2019-03-23T06:25:10.297Z,46.50
2019-03-23T06:27:39.674Z,45.87
2019-03-23T06:30:10.849Z,46.00
2019-03-23T06:32:40.189Z,45.17
2019-03-23T06:35:09.679Z,44.23
2019-03-23T06:37:39.019Z,39.93
2019-03-23T06:40:09.684Z,38.77
2019-03-23T06:42:39.086Z,39.83
2019-03-23T06:45:11.841Z,39.30
2019-03-23T06:47:42.106Z,43.37
2019-03-23T06:50:12.143Z,43.00
2019-03-23T06:52:41.643Z,44.63
2019-03-23T06:55:11.208Z,45.73
2019-03-23T06:57:40.572Z,48.33
2019-03-23T07:00:12.747Z,48.80
2019-03-23T07:02:42.083Z,48.60
2019-03-23T07:05:11.569Z,44.33
2019-03-23T07:07:40.974Z,40.37
2019-03-23T07:10:12.349Z,42.00
2019-03-23T07:12:41.695Z,39.93
2019-03-23T07:15:19.852Z,41.90
2019-03-23T07:17:43.961Z,42.33
2019-03-23T07:20:14.055Z,44.20
2019-03-23T07:22:43.381Z,43.73
2019-03-23T07:25:12.854Z,43.37
2019-03-23T07:27:42.195Z,44.70
2019-03-23T07:30:16.643Z,41.57
2019-03-23T07:32:46.513Z,41.93
2019-03-23T07:35:16.034Z,42.13
2019-03-23T07:37:45.430Z,39.97
2019-03-23T07:40:14.907Z,41.27
2019-03-23T07:42:44.257Z,43.77
2019-03-23T07:45:14.732Z,42.27
2019-03-23T07:47:44.739Z,43.07
2019-03-23T07:50:15.018Z,40.80
2019-03-23T07:52:44.690Z,42.90
2019-03-23T07:55:17.267Z,43.63
2019-03-23T07:57:46.594Z,42.67
2019-03-23T08:00:18.136Z,44.13
2019-03-23T08:02:47.633Z,46.10
2019-03-23T08:05:16.990Z,46.13
2019-03-23T08:07:46.416Z,45.77
2019-03-23T08:10:26.987Z,44.97
2019-03-23T08:12:56.318Z,42.90
2019-03-23T08:15:25.659Z,45.57
2019-03-23T08:17:55.531Z,43.20
2019-03-23T08:20:25.249Z,42.10
2019-03-23T08:22:55.134Z,40.47
2019-03-23T08:25:24.473Z,41.83
2019-03-23T08:27:53.817Z,42.23
2019-03-23T08:30:23.156Z,43.83
2019-03-23T08:32:52.485Z,43.67
2019-03-23T08:35:21.844Z,42.27
2019-03-23T08:37:51.168Z,42.77
2019-03-23T08:40:20.514Z,45.07
2019-03-23T08:42:49.898Z,44.67
2019-03-23T08:45:19.271Z,44.53
2019-03-23T08:47:48.610Z,43.10
2019-03-23T08:50:17.950Z,44.43
2019-03-23T08:52:47.283Z,42.77
2019-03-23T08:55:16.627Z,44.70
2019-03-23T08:57:45.962Z,41.83
2019-03-23T09:00:15.315Z,44.97
2019-03-23T09:02:44.642Z,44.57
2019-03-23T09:05:13.998Z,44.80
2019-03-23T09:07:43.334Z,45.43
2019-03-23T09:10:12.802Z,43.17
2019-03-23T09:12:42.146Z,42.33
2019-03-23T09:15:11.555Z,42.80
2019-03-23T09:17:40.894Z,43.27
2019-03-23T09:20:11.382Z,43.80
2019-03-23T09:22:40.709Z,42.67
2019-03-23T09:25:10.072Z,44.53
2019-03-23T09:27:39.418Z,42.87
2019-03-23T09:30:11.294Z,44.43
2019-03-23T09:32:40.636Z,47.13
2019-03-23T09:35:10.128Z,44.40
2019-03-23T09:37:39.486Z,43.63
2019-03-23T09:40:11.031Z,43.23
2019-03-23T09:42:40.302Z,44.20
2019-03-23T09:45:09.950Z,44.27
2019-03-23T09:47:39.318Z,42.93
2019-03-23T09:50:10.502Z,41.57
2019-03-23T09:52:39.827Z,42.13
2019-03-23T09:55:09.607Z,43.17
2019-03-23T09:57:38.948Z,41.50
2019-03-23T10:00:10.659Z,44.67
2019-03-23T10:02:39.994Z,54.90
2019-03-23T10:05:09.338Z,57.53
2019-03-23T10:07:38.677Z,58.73
2019-03-23T10:10:08.354Z,49.43
2019-03-23T10:12:37.707Z,51.13
2019-03-23T10:15:08.378Z,44.07
2019-03-23T10:17:37.718Z,44.33
2019-03-23T10:20:07.900Z,43.80
2019-03-23T10:22:37.255Z,46.13
2019-03-23T10:25:06.934Z,41.93
2019-03-23T10:27:36.278Z,42.80
2019-03-23T10:30:09.796Z,40.88
2019-03-23T10:32:39.142Z,42.47
2019-03-23T10:35:09.130Z,42.67
2019-03-23T10:37:38.536Z,40.10
2019-03-23T10:40:10.290Z,43.30
2019-03-23T10:42:39.625Z,41.23
2019-03-23T10:45:10.481Z,42.03
2019-03-23T10:47:39.981Z,41.90
2019-03-23T10:50:09.452Z,38.97
2019-03-23T10:52:38.781Z,39.87
2019-03-23T10:55:08.193Z,40.03
2019-03-23T10:57:37.534Z,41.33
2019-03-23T11:00:15.384Z,41.93
2019-03-23T11:02:44.722Z,39.63
2019-03-23T11:05:14.071Z,41.33
2019-03-23T11:07:43.400Z,42.33
2019-03-23T11:10:13.977Z,40.30
2019-03-23T11:12:43.326Z,41.30
2019-03-23T11:15:12.673Z,40.87
2019-03-23T11:17:42.005Z,40.57
2019-03-23T11:20:14.990Z,41.50
2019-03-23T11:22:44.349Z,36.43
2019-03-23T11:25:13.830Z,39.53
2019-03-23T11:27:43.170Z,38.90
2019-03-23T11:30:15.522Z,42.07
2019-03-23T11:32:44.857Z,41.23
2019-03-23T11:35:14.284Z,41.87
2019-03-23T11:37:43.808Z,40.90
2019-03-23T11:40:13.239Z,39.30
2019-03-23T11:42:49.920Z,40.80
2019-03-23T11:45:13.795Z,42.07
2019-03-23T11:47:43.132Z,42.93
2019-03-23T11:50:12.550Z,40.53
2019-03-23T11:52:41.895Z,43.17
2019-03-23T11:55:11.324Z,41.10
2019-03-23T11:57:40.649Z,40.73
2019-03-23T12:00:13.034Z,40.53
2019-03-23T12:02:42.374Z,39.20
2019-03-23T12:05:11.854Z,38.63
2019-03-23T12:07:41.186Z,39.63
2019-03-23T12:10:11.761Z,38.20
2019-03-23T12:12:41.180Z,38.80
2019-03-23T12:15:12.466Z,40.20
2019-03-23T12:17:41.861Z,38.13
2019-03-23T12:20:12.754Z,39.50
2019-03-23T12:22:42.091Z,38.73
2019-03-23T12:25:11.500Z,38.63
2019-03-23T12:27:40.855Z,36.50
2019-03-23T12:30:15.585Z,40.43
2019-03-23T12:32:44.918Z,40.47
2019-03-23T12:35:14.257Z,42.07
2019-03-23T12:37:43.602Z,38.30
2019-03-23T12:40:13.394Z,39.80
2019-03-23T12:42:42.735Z,39.87
2019-03-23T12:45:12.301Z,40.77
2019-03-23T12:47:41.639Z,40.67
2019-03-23T12:50:12.225Z,39.90
2019-03-23T12:52:41.578Z,36.43
2019-03-23T12:55:11.247Z,38.90
2019-03-23T12:57:40.577Z,35.37
2019-03-23T13:00:13.161Z,40.57
2019-03-23T13:02:42.570Z,36.97
2019-03-23T13:05:12.057Z,34.63
2019-03-23T13:07:41.385Z,33.47
2019-03-23T13:10:12.730Z,33.43
2019-03-23T13:12:42.142Z,32.47
2019-03-23T13:15:14.088Z,32.30
2019-03-23T13:17:43.503Z,31.77
2019-03-23T13:20:13.123Z,32.13
2019-03-23T13:22:42.555Z,32.07
2019-03-23T13:25:11.961Z,30.33
2019-03-23T13:27:42.224Z,30.50
2019-03-23T13:30:14.552Z,30.33
2019-03-23T13:32:43.890Z,30.63
2019-03-23T13:35:13.306Z,29.87
2019-03-23T13:37:42.649Z,30.07
2019-03-23T13:40:13.047Z,29.83
2019-03-23T13:42:42.384Z,27.23
2019-03-23T13:45:12.072Z,29.30
2019-03-23T13:47:41.407Z,25.80
2019-03-23T13:50:11.960Z,25.73
2019-03-23T13:52:41.362Z,24.80
2019-03-23T13:55:13.781Z,25.57
2019-03-23T13:57:43.119Z,24.97
2019-03-23T14:00:12.634Z,24.37
2019-03-23T14:02:41.982Z,23.63
2019-03-23T14:05:16.127Z,23.20
2019-03-23T14:07:42.374Z,21.40
2019-03-23T14:10:11.775Z,21.73
2019-03-23T14:12:41.123Z,19.97
2019-03-23T14:15:10.535Z,19.07
2019-03-23T14:17:39.901Z,17.53
2019-03-23T14:20:10.106Z,16.80
2019-03-23T14:22:39.442Z,14.40
2019-03-23T14:25:09.053Z,13.50
2019-03-23T14:27:38.433Z,11.83
2019-03-23T14:30:08.921Z,10.70
2019-03-23T14:32:38.325Z,11.50
2019-03-23T14:35:08.523Z,10.77
2019-03-23T14:37:37.858Z,9.73
2019-03-23T14:40:07.543Z,8.37
2019-03-23T14:42:36.889Z,9.07
2019-03-23T14:45:15.161Z,8.37
2019-03-23T14:47:49.052Z,8.93
2019-03-23T14:50:18.452Z,7.47
2019-03-23T14:52:47.939Z,6.60
2019-03-23T14:55:18.848Z,8.23
2019-03-23T14:57:48.395Z,7.37
2019-03-23T15:00:20.863Z,6.97
2019-03-23T15:02:56.773Z,6.03
2019-03-23T15:05:30.031Z,5.10
2019-03-23T15:08:24.596Z,4.63
2019-03-23T15:10:57.294Z,3.60
2019-03-23T15:13:27.085Z,3.40
2019-03-23T15:15:56.486Z,3.77
2019-03-23T15:18:25.853Z,2.87
2019-03-23T15:20:55.255Z,2.90
2019-03-23T15:23:24.610Z,2.97
2019-03-23T15:25:53.946Z,2.60
2019-03-23T15:28:23.296Z,2.70
2019-03-23T15:30:52.640Z,3.17
2019-03-23T15:33:21.964Z,2.80
2019-03-23T15:35:51.289Z,2.33
2019-03-23T15:38:22.440Z,2.40
2019-03-23T15:40:52.068Z,2.80
2019-03-23T15:43:21.414Z,2.20
2019-03-23T15:45:50.758Z,2.70
2019-03-23T15:48:20.090Z,3.20
2019-03-23T15:50:49.444Z,2.90
2019-03-23T15:53:18.770Z,2.70
2019-03-23T15:55:48.106Z,2.53
2019-03-23T15:58:19.370Z,3.27
2019-03-23T16:00:48.703Z,2.40
2019-03-23T16:03:18.059Z,2.37
2019-03-23T16:05:53.133Z,2.87
2019-03-23T16:08:22.655Z,2.53
2019-03-23T16:10:52.009Z,2.93
2019-03-23T16:13:21.356Z,2.37
2019-03-23T16:15:50.698Z,2.73
2019-03-23T16:18:20.078Z,2.90
2019-03-23T16:20:49.399Z,2.57
2019-03-23T16:23:18.745Z,2.57
2019-03-23T16:25:48.089Z,3.03
2019-03-23T16:28:17.426Z,2.90
2019-03-23T16:30:46.779Z,2.67
2019-03-23T16:33:16.101Z,2.67
2019-03-23T16:35:50.353Z,3.00
2019-03-23T16:38:19.689Z,3.20
2019-03-23T16:40:49.023Z,3.83
2019-03-23T16:43:18.362Z,2.73
2019-03-23T16:45:48.288Z,3.10
2019-03-23T16:48:17.805Z,2.97
2019-03-23T16:50:47.137Z,2.40
2019-03-23T16:53:16.468Z,2.47
2019-03-23T16:55:45.790Z,2.30
2019-03-23T16:58:16.296Z,2.10
2019-03-23T17:00:45.843Z,2.17
2019-03-23T17:03:15.158Z,2.23
2019-03-23T17:05:44.523Z,2.00
2019-03-23T17:08:13.831Z,2.10
2019-03-23T17:10:43.163Z,2.63
2019-03-23T17:13:12.500Z,2.93
2019-03-23T17:15:41.833Z,2.17
2019-03-23T17:18:11.162Z,2.33
2019-03-23T17:20:40.481Z,2.67
2019-03-23T17:23:09.816Z,2.27
2019-03-23T17:25:39.139Z,2.60
2019-03-23T17:28:08.478Z,2.50
2019-03-23T17:30:37.801Z,2.50
2019-03-23T17:33:08.890Z,2.20
2019-03-23T17:35:38.339Z,2.10
2019-03-23T17:38:07.670Z,2.17
2019-03-23T17:40:37.000Z,2.27
2019-03-23T17:43:06.477Z,3.10
2019-03-23T17:45:35.835Z,2.93
2019-03-23T17:48:05.169Z,2.57
2019-03-23T17:50:34.489Z,3.17
2019-03-23T17:53:03.882Z,3.57
2019-03-23T17:55:33.226Z,3.40
2019-03-23T17:58:02.549Z,3.20
2019-03-23T18:00:32.248Z,3.10
2019-03-23T18:03:01.581Z,3.77
2019-03-23T18:05:30.914Z,3.83
2019-03-23T18:08:00.271Z,3.47
2019-03-23T18:10:29.600Z,3.87
2019-03-23T18:12:58.999Z,3.17
2019-03-23T18:15:28.402Z,3.13
2019-03-23T18:17:57.739Z,3.70
2019-03-23T18:20:27.089Z,3.43
2019-03-23T18:22:56.414Z,3.10
2019-03-23T18:25:25.738Z,3.00
2019-03-23T18:27:55.990Z,2.47
2019-03-23T18:30:36.245Z,3.30
2019-03-23T18:33:05.951Z,3.67
2019-03-23T18:35:35.359Z,3.37
2019-03-23T18:38:05.221Z,3.13
2019-03-23T18:40:34.900Z,2.90
2019-03-23T18:43:04.494Z,2.97
2019-03-23T18:45:34.382Z,2.53
2019-03-23T18:48:03.891Z,3.40
2019-03-23T18:50:33.227Z,2.97
2019-03-23T18:53:02.684Z,4.50
2019-03-23T18:55:32.054Z,4.97
2019-03-23T18:58:01.399Z,4.73
2019-03-23T19:00:35.709Z,3.73
2019-03-23T19:03:05.388Z,3.80
2019-03-23T19:05:34.860Z,3.50
2019-03-23T19:08:04.533Z,2.90
2019-03-23T19:10:33.929Z,3.27
2019-03-23T19:13:03.385Z,3.90
2019-03-23T19:15:32.730Z,3.73
2019-03-23T19:18:02.135Z,3.67
2019-03-23T19:20:31.633Z,4.03
2019-03-23T19:23:00.970Z,4.20
2019-03-23T19:25:30.314Z,4.83
2019-03-23T19:27:59.642Z,3.40
2019-03-23T19:30:28.976Z,4.07
2019-03-23T19:32:58.298Z,3.80
2019-03-23T19:35:27.637Z,4.10
2019-03-23T19:37:56.972Z,2.87
2019-03-23T19:40:26.295Z,3.50
2019-03-23T19:42:55.640Z,3.77
2019-03-23T19:45:24.979Z,3.60
2019-03-23T19:47:54.328Z,4.00
2019-03-23T19:50:23.664Z,3.90
2019-03-23T19:52:53.001Z,3.87
2019-03-23T19:55:22.329Z,4.23
2019-03-23T19:57:54.575Z,4.83
2019-03-23T20:00:22.719Z,4.20
2019-03-23T20:02:52.061Z,4.10
2019-03-23T20:05:32.441Z,5.17
2019-03-23T20:08:01.829Z,4.40
2019-03-23T20:10:31.173Z,4.70
2019-03-23T20:13:00.657Z,4.50
2019-03-23T20:15:30.029Z,4.93
2019-03-23T20:17:59.354Z,4.13
2019-03-23T20:20:28.698Z,5.43
2019-03-23T20:22:58.022Z,7.23
2019-03-23T20:25:27.344Z,7.60
2019-03-23T20:27:56.681Z,6.70
2019-03-23T20:30:26.011Z,6.03
2019-03-23T20:32:55.343Z,5.90
2019-03-23T20:35:24.685Z,7.70
2019-03-23T20:37:54.014Z,12.87
2019-03-23T20:40:23.357Z,18.03
2019-03-23T20:42:52.707Z,8.30
2019-03-23T20:45:29.537Z,7.40
2019-03-23T20:47:58.933Z,5.97
2019-03-23T20:50:28.273Z,6.53
2019-03-23T20:52:57.670Z,7.30
2019-03-23T20:55:28.742Z,5.73
2019-03-23T20:57:58.265Z,5.10
2019-03-23T21:00:27.585Z,4.97
2019-03-23T21:02:56.991Z,5.73
2019-03-23T21:05:33.881Z,7.40
2019-03-23T21:07:57.373Z,6.67
2019-03-23T21:10:26.678Z,6.40
2019-03-23T21:12:56.019Z,7.50
2019-03-23T21:15:25.346Z,6.23
2019-03-23T21:17:54.674Z,4.83
2019-03-23T21:20:24.025Z,5.57
2019-03-23T21:22:53.350Z,8.70
2019-03-23T21:25:22.682Z,6.60
2019-03-23T21:27:52.019Z,7.60
2019-03-23T21:30:21.577Z,6.77
2019-03-23T21:32:50.910Z,9.80
2019-03-23T21:35:20.254Z,16.10
2019-03-23T21:37:49.590Z,16.07
2019-03-23T21:40:18.906Z,8.87
2019-03-23T21:42:48.241Z,6.23
2019-03-23T21:45:17.701Z,5.30
2019-03-23T21:47:47.025Z,4.97
2019-03-23T21:50:16.371Z,4.77
2019-03-23T21:52:45.694Z,4.63
2019-03-23T21:55:15.210Z,5.63
2019-03-23T21:57:44.544Z,4.43
2019-03-23T22:00:16.953Z,5.77
2019-03-23T22:02:46.281Z,4.80
2019-03-23T22:05:15.609Z,5.73
2019-03-23T22:07:44.937Z,4.30
2019-03-23T22:10:14.336Z,4.80
2019-03-23T22:12:43.674Z,5.83
2019-03-23T22:15:13.129Z,5.47
2019-03-23T22:17:42.457Z,4.77
2019-03-23T22:20:11.866Z,4.90
2019-03-23T22:22:41.193Z,4.80
2019-03-23T22:25:10.668Z,5.13
2019-03-23T22:27:40.002Z,5.00
2019-03-23T22:30:14.054Z,5.17
2019-03-23T22:32:43.414Z,5.20
2019-03-23T22:35:12.810Z,5.43
2019-03-23T22:37:42.138Z,5.00
2019-03-23T22:40:11.913Z,4.60
2019-03-23T22:42:41.238Z,4.33
2019-03-23T22:45:11.414Z,4.67
2019-03-23T22:47:40.733Z,4.73
2019-03-23T22:50:11.209Z,5.37
2019-03-23T22:52:40.541Z,4.10
2019-03-23T22:55:10.005Z,4.60
2019-03-23T22:57:39.334Z,4.87
2019-03-23T23:00:13.505Z,5.97
2019-03-23T23:02:42.838Z,5.60
2019-03-23T23:05:12.164Z,4.40
2019-03-23T23:07:41.506Z,4.97
2019-03-23T23:10:11.166Z,4.77
2019-03-23T23:12:40.492Z,6.83
2019-03-23T23:15:09.975Z,5.77
2019-03-23T23:17:39.306Z,5.87
2019-03-23T23:20:08.877Z,4.87
2019-03-23T23:22:38.205Z,4.50
2019-03-23T23:25:08.470Z,5.10
2019-03-23T23:27:37.974Z,4.97
2019-03-23T23:30:08.857Z,4.73
2019-03-23T23:32:38.185Z,5.07
2019-03-23T23:35:08.954Z,4.73
2019-03-23T23:37:38.449Z,4.97
2019-03-23T23:40:08.036Z,5.50
2019-03-23T23:42:37.359Z,4.17
2019-03-23T23:45:15.188Z,4.60
2019-03-23T23:47:38.665Z,4.30
2019-03-23T23:50:08.335Z,5.27
2019-03-23T23:52:37.657Z,5.40
2019-03-23T23:55:07.125Z,4.70
2019-03-23T23:57:36.538Z,4.60
